createdAt,value
2019-03-31T00:01:53.555Z,7.70
2019-03-31T00:11:59.195Z,7.50
2019-03-31T00:22:05.376Z,7.40
2019-03-31T00:32:10.869Z,7.30
2019-03-31T00:42:16.378Z,7.20
2019-03-31T00:52:21.891Z,7.20
2019-03-31T01:02:32.201Z,7.10
2019-03-31T01:12:38.276Z,7.10
2019-03-31T01:22:43.837Z,7.20
2019-03-31T01:32:49.624Z,7.20
2019-03-31T01:42:55.362Z,7.20
2019-03-31T01:53:01.079Z,7.10
2019-03-31T02:03:06.959Z,7.00
2019-03-31T02:13:12.715Z,6.80
2019-03-31T02:23:18.440Z,6.70
2019-03-31T02:33:24.035Z,6.60
2019-03-31T02:43:29.641Z,6.40
2019-03-31T02:53:35.146Z,6.20
2019-03-31T03:03:41.179Z,6.20
2019-03-31T03:13:49.747Z,6.20
2019-03-31T03:23:55.314Z,6.00
2019-03-31T03:34:01.005Z,5.80
2019-03-31T03:44:06.612Z,5.80
2019-03-31T03:54:12.121Z,5.80
2019-03-31T04:04:17.715Z,5.70
2019-03-31T04:14:23.363Z,5.60
2019-03-31T04:24:28.957Z,5.50
2019-03-31T04:34:34.601Z,5.40
2019-03-31T04:44:40.409Z,5.40
2019-03-31T04:54:45.928Z,5.40
2019-03-31T05:04:51.446Z,5.60
2019-03-31T05:14:58.196Z,5.70
2019-03-31T05:25:04.495Z,6.00
2019-03-31T05:35:10.120Z,6.20
2019-03-31T05:45:15.826Z,6.40
2019-03-31T05:55:21.426Z,6.70
2019-03-31T06:05:26.943Z,7.00
2019-03-31T06:15:32.459Z,7.30
2019-03-31T06:25:38.058Z,7.70
2019-03-31T06:35:43.579Z,8.00
2019-03-31T06:45:49.124Z,8.30
2019-03-31T06:55:55.892Z,8.60
2019-03-31T07:06:01.651Z,8.80
2019-03-31T07:16:10.520Z,9.30
2019-03-31T07:26:16.188Z,9.80
2019-03-31T07:36:25.087Z,10.30
2019-03-31T07:46:30.653Z,10.90
2019-03-31T07:56:37.679Z,11.40
2019-03-31T08:06:43.199Z,12.00
2019-03-31T08:16:48.934Z,12.30
2019-03-31T08:26:54.475Z,12.90
2019-03-31T08:37:00.075Z,13.20
2019-03-31T08:47:06.446Z,13.80
2019-03-31T08:57:12.028Z,14.20
2019-03-31T09:07:17.637Z,14.70
2019-03-31T09:17:23.279Z,15.30
2019-03-31T09:27:28.770Z,15.40
2019-03-31T09:37:34.477Z,15.70
2019-03-31T09:47:40.220Z,16.20
2019-03-31T09:57:45.885Z,16.40
2019-03-31T10:07:51.675Z,16.80
2019-03-31T10:17:57.311Z,17.20
2019-03-31T10:28:04.993Z,17.40
2019-03-31T10:38:10.939Z,17.40
2019-03-31T10:48:20.710Z,17.60
2019-03-31T10:58:25.128Z,18.20
2019-03-31T11:19:20.098Z,18.90
2019-03-31T11:29:25.683Z,19.10
2019-03-31T11:39:31.195Z,18.90
2019-03-31T11:49:38.170Z,19.20
2019-03-31T11:59:43.887Z,19.50
2019-03-31T12:09:49.720Z,19.80
2019-03-31T12:19:55.595Z,19.80
2019-03-31T12:30:01.196Z,20.00
2019-03-31T12:40:08.236Z,19.80
2019-03-31T12:50:14.083Z,20.30
2019-03-31T13:00:20.382Z,20.50
2019-03-31T13:10:26.082Z,20.00
2019-03-31T13:20:33.502Z,20.30
2019-03-31T13:30:40.213Z,19.90
2019-03-31T13:40:46.488Z,20.70
2019-03-31T13:50:52.362Z,20.60
2019-03-31T14:00:58.303Z,20.10
2019-03-31T14:11:04.246Z,20.50
2019-03-31T14:21:10.337Z,21.00
2019-03-31T14:31:16.175Z,20.90
2019-03-31T14:41:21.995Z,20.30
2019-03-31T14:51:29.350Z,20.10
2019-03-31T15:01:35.180Z,19.80
2019-03-31T15:11:41.001Z,19.20
2019-03-31T15:21:46.984Z,19.30
2019-03-31T15:31:53.156Z,18.80
2019-03-31T15:41:59.321Z,18.20
2019-03-31T15:52:08.581Z,17.80
2019-03-31T16:02:12.760Z,17.30
2019-03-31T16:12:18.808Z,16.90
2019-03-31T16:22:24.781Z,16.80
2019-03-31T16:32:30.715Z,16.60
2019-03-31T16:42:36.762Z,16.30
2019-03-31T16:52:42.723Z,15.90
2019-03-31T17:02:48.706Z,15.70
2019-03-31T17:12:54.715Z,15.40
2019-03-31T17:23:00.797Z,15.20
2019-03-31T17:33:06.725Z,14.90
2019-03-31T17:43:12.642Z,14.60
2019-03-31T17:53:18.602Z,14.40
2019-03-31T18:03:24.607Z,14.20
2019-03-31T18:13:30.682Z,14.00
2019-03-31T18:23:38.788Z,13.70
2019-03-31T18:33:44.809Z,13.30
2019-03-31T18:43:51.979Z,13.10
2019-03-31T18:54:04.658Z,12.70
2019-03-31T19:04:28.486Z,12.40
2019-03-31T19:14:39.100Z,12.20
2019-03-31T19:24:46.987Z,11.90
2019-03-31T19:35:12.607Z,11.60
2019-03-31T19:45:36.289Z,11.40
2019-03-31T19:55:50.005Z,11.10
2019-03-31T20:06:15.640Z,10.90
2019-03-31T20:16:23.098Z,10.60
2019-03-31T20:26:42.601Z,10.40
2019-03-31T20:37:05.790Z,10.20
2019-03-31T20:47:11.754Z,10.00
2019-03-31T20:57:17.807Z,9.80
2019-03-31T21:07:23.617Z,9.60
2019-03-31T21:17:29.342Z,9.60
2019-03-31T21:27:35.996Z,9.60
2019-03-31T21:37:41.687Z,9.60
2019-03-31T21:47:47.234Z,9.60
2019-03-31T21:57:52.884Z,9.40
2019-03-31T22:07:58.378Z,9.10
2019-03-31T22:18:03.884Z,8.80
2019-03-31T22:28:09.755Z,8.50
2019-03-31T22:38:15.351Z,8.10
2019-03-31T22:48:20.862Z,7.80
2019-03-31T22:58:26.377Z,7.50
2019-03-31T23:08:31.997Z,7.40
2019-03-31T23:18:37.682Z,7.20
2019-03-31T23:29:01.084Z,7.10
2019-03-31T23:39:08.097Z,7.20
2019-03-31T23:49:13.709Z,7.40
2019-03-31T23:59:19.277Z,7.40
